Audubon, Illinois
Current Conditions -  °F | °C
As of 2:35 AM on Saturday 20 Dec 2014 (Local Time) from KTAZ Reporting Station
Overcast Overcast  
Wind Chill: 32°   Ceiling: 4800
Heat Index: 32°   Visibility: 7mi
Dew Point: 28°   Wind: 0mph
Humidity: 87%   Direction: NA
Pressure: 30.28"   Gusts: NA
Location:  39.3183°N, 89.2952°W
Report Text: KTAZ 200835Z AUTO 00000KT 7SM OVC048 00/M02 A3028 RMK AO2
Loading
Personal Weather Stations






























Interactive Weather Map New forecast layout! Learn more

10-Day Weather Forecast

Advertisements
Track Severe Weather on mobile